Create Custom Reports and Graphics: Custom Report

Latest Observations

MWA Stations

15 Minute Data | America/Los_Angeles
as of 9/2/26 1:01 AM PDT
Station Date Time Temp (°F) RH (%) Dew Pt (°F) Wind Dir (°) Wind Spd (mph) Wind Gust (mph) Solar Rad (W/m2) Pressure (mb) Daily Min Temp (°F) Daily Max Temp (°F) Daily Max Wind (mph) Daily Rain (In) Yest MinT (°F) Yest MaxT (°F) Yest MaxGst (mph) Yest Precip (In) MinBV Day (V)
MWA Office 9/2/26 0100 67.2   3.6 22   6 27.2   8.7 WSW | 239 8.8   1.7 14.5   1.1 0   0 1,014.1   1.1 66.7   2.6 86.3   4.7 30.5   2.4 0.00 64.1 91.0 28.1 0.00 12.4   0.0
MWA OPS 9/2/26 0100 67.3   3.1 23   7 28.4   9.6 SSW | 196 5.4   4.8 11.2   5.3 0   0 1,013.7   1.5 61.4   8.2 84.2   3.8 26.7   1.1 0.00 69.6 88.0 27.8 0.00 12.8   0.0
LV-PS 9/2/26 0100 62.5   9.2 29   3 29.9   5.1 SSE | 153 2.3   0.8 4.2   1.3 0   0 1,013.4   2.9 59.7   7.8 90.6   4.4 28.3   0.7 0.00 67.5 95.0 27.6 0.00 12.8   0.0
JV-PS 9/2/26 0100 67.2   2.7 25   7 30.4   8.1 ENE | 71 3.4   0.8 5.0   0.9 0   0 1,012.4   1.1 60.6   1.9 91.6   3.6 34.4   3.7 0.00 62.4 95.2 30.7 0.00 12.8   0.0
BDVWA 9/2/26 0100 66.0   0.8 23   10 27.5   9.4 SW | 233 6.7   3.6 10.7   5.0 0   0 1,012.6   0.8 63.6   1.7 87.6   2.1 32.9   2.0 0.00 65.3 89.7 30.9 0.00 12.8   0.0
Newberry Springs 9/2/26 0100 70.6   5.0 21   4 29.2   8.2 N | 355 10.1   2.6 15.8   2.6 0   0 1,012.6   1.9 66.9   5.3 95.8   4.0 28.7   0.0 0.00 72.2 99.8 28.7 0.00 12.9   0.0
Pinon Hills 9/2/26 0045 63.4   1.3 18   1 19.3   0.1 S | 171 2.0   0.6 4.6   2.9 0   0 1,013.2   0.1 54.8   5.9 77.5   4.9 32.9   4.2 0.00 59.9 82.4 28.7 0.00 12.8   0.0
Helendale 9/2/26 0100 61.7   6.2 37   8 35.0   10.7 SSW | 198 4.5   1.2 6.8   2.0 0   0 1,014.6   2.2 54.9   12.1 92.6   2.5 28.3   1.5 0.00 67.0 95.1 26.7 0.00 12.7   0.1
Lenwood 9/2/26 0100 66.0   3.1 29   4 32.6   5.8 WNW | 289 3.3   4.1 6.8   3.5 0   0 1,014.1   2.0 56.6   10.3 93.1   4.4 31.6   0.2 0.00 66.9 97.5 31.8 0.00 12.8   0.0
Oak Hills 9/2/26 0045 59.8   1.9 35   9 32.1   7.4 SSW | 206 7.4   2.9 15.3   5.0 0   0 1,014.6   0.7 57.5   0.7 79.4   2.7 24.8   0.7 0.00 58.2 82.1 25.4 0.00 12.9   0.0
Pipes Wash Canyon 9/2/26 0100 61.0   9.7 28   4 27.6   4.3 W | 270 2.5   0.8 4.4   4.2 0   0 1,013.3   3.4 58.4   3.9 86.0   1.5 23.7   0.0 0.00 62.3 87.5 23.7 0.00 12.8   0.0
Max     70.6 37 35.0 - 10.1 15.8 0 1,014.6 66.9 95.8 34.4 0.00 72.2 99.8 31.8 0.00 12.9
Avg     64.8 26 29.0 - 5.1 9.0 0 1,013.5 - - - - - - - - -
Min     59.8 18 19.3 - 2.0 4.2 0 1,012.4 54.8 77.5 23.7 0.00 58.2 82.1 23.7 0.00 12.4

Latest Observations

Map

15 Minute Data

Rainfall & ETo

MWA Stations

15 Minute Data | America/Los_Angeles
as of 9/2/26 1:01 AM PDT
Station Date Time Latest Rain (In) Daily Rain (In) Yest Precip (In) Month Precip (In) Season Precip (In) Daily ETo (in) Yest ETo (In) 7 Day ETo (in)
MWA Office 9/2/26 0100 0.00 0.00 0.00 0.00 0.00 0.297 0.28 1.88
MWA OPS 9/2/26 0100 0.00 0.00 0.00 0.00 0.00 0.318 0.33 2.05
LV-PS 9/2/26 0100 0.00 0.00 0.00 0.00 0.34 0.279 0.29 1.98
JV-PS 9/2/26 0100 0.00 0.00 0.00 0.00 0.06 0.281 0.28 1.95
BDVWA 9/2/26 0100 0.00 0.00 0.00 0.00 0.00 0.314 0.31 2.13
Newberry Springs 9/2/26 0100 0.00 0.00 0.00 0.00 1.97 0.332 0.33 2.36
Pinon Hills 9/2/26 0045 0.00 0.00 0.00 0.00 0.19 0.250 0.25 1.76
Helendale 9/2/26 0100 0.00 0.00 0.00 0.00 0.00 0.278 0.30 2.11
Lenwood 9/2/26 0100 0.00 0.00 0.00 0.00 0.09 0.313 0.34 2.12
Oak Hills 9/2/26 0045 0.00 0.00 0.00 0.00 0.00 0.245 0.25 1.76
Pipes Wash Canyon 9/2/26 0100 0.00 0.00 0.00 0.00 0.00 0.232 0.24 1.68
Max     0.00 0.00 0.00 0.00 1.97 0.332 0.34 2.36
Avg     0.00 - - - - - - -
Min     0.00 0.00 0.00 0.00 0.00 0.232 0.24 1.68